Disclaimer

Please do not use the information listed here in-flight or in-navigation, as they are not provided to us by the airports but are provided by volunteers, so they might be outdated.

Search


Regions


Airport information page

Radio informations:
Tower (TWR) - 118.8 MHz
APRON - 121.7 MHz
LANGEN RADAR - 119.2 MHz
BASE OPS PTD - 31.8 MHz
DEICING - 136.825 MHz
LANGEN INFO - 128.95 MHz
Ground (GND) - 118.6 MHz
Director (DIR) - 119.85 MHz
Clearance delivery - 121.9 MHz

Airport informations:
Latitude: 48° 41' 23.56" N
Longitude: 009° 13' 19.07" E
Elevation: 1276 feet - 389 meters
Operating hours: Remarks
Operating agency: Military-civil joint use airport
Timezone: UTC+1(+2DT) - Last Sunday in March to last Sunday in October
Fuel: Jet A1+, Jet A1 with icing inhibitor.

JP-8, SemiKeroscene MIL Spec T-83133, without icing inhibitor

100/130 MIL Spec, low lead, aviation gasoline (BLUE)

Runway information:
07/25 - 10974 x 148 feet< - >3345 x 45 meters

Recent METARs:
EDDS 151650Z 12005KT 060V170 9999 BKN022 M01/M06 Q1021 NOSIG
EDDS 151720Z 15007KT 9999 BKN022 M01/M06 Q1021 NOSIG
EDDS 151750Z 13005KT 100V170 9999 OVC022 M01/M06 Q1021 NOSIG

Airport on the map: